sensor_id;sensor_type;location;lat;lon;timestamp;pressure;altitude;pressure_sealevel;temperature;humidity
36964;BME280;22878;48.616;35.326;2023-04-29T00:01:07;100481.35;;;11.49;100.00
36964;BME280;22878;48.616;35.326;2023-04-29T00:03:33;100485.02;;;11.41;100.00
36964;BME280;22878;48.616;35.326;2023-04-29T00:05:59;100487.61;;;11.45;100.00
36964;BME280;22878;48.616;35.326;2023-04-29T00:08:25;100494.36;;;11.46;100.00
36964;BME280;22878;48.616;35.326;2023-04-29T00:10:51;100498.03;;;11.40;100.00
36964;BME280;22878;48.616;35.326;2023-04-29T00:13:16;100500.62;;;11.43;100.00
36964;BME280;22878;48.616;35.326;2023-04-29T00:15:42;100497.25;;;11.38;100.00
36964;BME280;22878;48.616;35.326;2023-04-29T00:18:09;100493.71;;;11.39;100.00
36964;BME280;22878;48.616;35.326;2023-04-29T00:20:35;100491.06;;;11.41;100.00
36964;BME280;22878;48.616;35.326;2023-04-29T00:23:02;100491.55;;;11.43;100.00
36964;BME280;22878;48.616;35.326;2023-04-29T00:25:28;100491.88;;;11.45;100.00
36964;BME280;22878;48.616;35.326;2023-04-29T00:27:55;100492.48;;;11.47;100.00
36964;BME280;22878;48.616;35.326;2023-04-29T00:30:24;100492.09;;;11.44;100.00
36964;BME280;22878;48.616;35.326;2023-04-29T00:32:49;100489.52;;;11.46;100.00
36964;BME280;22878;48.616;35.326;2023-04-29T00:35:15;100488.96;;;11.50;100.00
36964;BME280;22878;48.616;35.326;2023-04-29T00:37:40;100486.47;;;11.50;100.00
36964;BME280;22878;48.616;35.326;2023-04-29T00:40:06;100482.48;;;11.53;100.00
36964;BME280;22878;48.616;35.326;2023-04-29T00:42:33;100483.89;;;11.55;100.00
36964;BME280;22878;48.616;35.326;2023-04-29T00:44:59;100483.08;;;11.53;100.00
36964;BME280;22878;48.616;35.326;2023-04-29T00:47:24;100487.17;;;11.51;100.00
36964;BME280;22878;48.616;35.326;2023-04-29T00:49:50;100484.80;;;11.54;100.00
36964;BME280;22878;48.616;35.326;2023-04-29T00:52:16;100483.73;;;11.55;100.00
36964;BME280;22878;48.616;35.326;2023-04-29T00:54:42;100486.42;;;11.57;100.00
36964;BME280;22878;48.616;35.326;2023-04-29T00:57:08;100487.46;;;11.56;100.00
36964;BME280;22878;48.616;35.326;2023-04-29T00:59:34;100489.45;;;11.50;100.00
36964;BME280;22878;48.616;35.326;2023-04-29T01:02:02;100486.25;;;11.39;100.00
36964;BME280;22878;48.616;35.326;2023-04-29T01:04:31;100482.74;;;11.34;100.00
36964;BME280;22878;48.616;35.326;2023-04-29T01:12:28;100489.86;;;11.31;100.00
36964;BME280;22878;48.616;35.326;2023-04-29T01:15:08;100490.36;;;11.21;100.00
36964;BME280;22878;48.616;35.326;2023-04-29T01:17:39;100493.22;;;11.19;100.00
36964;BME280;22878;48.616;35.326;2023-04-29T01:20:06;100497.77;;;11.20;100.00
36964;BME280;22878;48.616;35.326;2023-04-29T01:22:33;100501.04;;;11.15;100.00
36964;BME280;22878;48.616;35.326;2023-04-29T01:24:58;100505.88;;;11.11;100.00
36964;BME280;22878;48.616;35.326;2023-04-29T01:27:38;100506.70;;;11.12;100.00
36964;BME280;22878;48.616;35.326;2023-04-29T01:30:12;100510.30;;;11.11;100.00
36964;BME280;22878;48.616;35.326;2023-04-29T01:32:56;100515.60;;;11.12;100.00
36964;BME280;22878;48.616;35.326;2023-04-29T01:38:14;100519.66;;;11.15;100.00
36964;BME280;22878;48.616;35.326;2023-04-29T01:40:51;100516.04;;;11.14;100.00
36964;BME280;22878;48.616;35.326;2023-04-29T01:43:26;100524.84;;;11.15;100.00
36964;BME280;22878;48.616;35.326;2023-04-29T01:45:55;100526.67;;;11.16;100.00
36964;BME280;22878;48.616;35.326;2023-04-29T01:48:22;100520.73;;;11.11;100.00
36964;BME280;22878;48.616;35.326;2023-04-29T01:50:49;100519.48;;;11.09;100.00
36964;BME280;22878;48.616;35.326;2023-04-29T01:53:14;100521.42;;;11.09;100.00
36964;BME280;22878;48.616;35.326;2023-04-29T01:55:40;100521.84;;;11.07;100.00
36964;BME280;22878;48.616;35.326;2023-04-29T01:58:05;100521.23;;;11.04;100.00
36964;BME280;22878;48.616;35.326;2023-04-29T02:00:31;100518.36;;;11.03;100.00
36964;BME280;22878;48.616;35.326;2023-04-29T02:02:56;100518.91;;;11.05;100.00
36964;BME280;22878;48.616;35.326;2023-04-29T02:05:22;100518.14;;;10.97;100.00
36964;BME280;22878;48.616;35.326;2023-04-29T02:07:47;100512.95;;;10.94;100.00
36964;BME280;22878;48.616;35.326;2023-04-29T02:10:13;100519.29;;;11.01;100.00
36964;BME280;22878;48.616;35.326;2023-04-29T02:12:38;100518.42;;;11.00;100.00
36964;BME280;22878;48.616;35.326;2023-04-29T02:15:05;100520.36;;;10.99;100.00
36964;BME280;22878;48.616;35.326;2023-04-29T02:17:32;100525.76;;;11.02;100.00
36964;BME280;22878;48.616;35.326;2023-04-29T02:19:58;100527.42;;;11.01;100.00
36964;BME280;22878;48.616;35.326;2023-04-29T02:22:24;100526.98;;;11.00;100.00
36964;BME280;22878;48.616;35.326;2023-04-29T02:24:49;100524.35;;;11.01;100.00
36964;BME280;22878;48.616;35.326;2023-04-29T02:27:15;100524.52;;;11.04;100.00
36964;BME280;22878;48.616;35.326;2023-04-29T02:29:40;100528.23;;;11.04;100.00
36964;BME280;22878;48.616;35.326;2023-04-29T02:32:06;100529.20;;;11.02;100.00
36964;BME280;22878;48.616;35.326;2023-04-29T02:34:31;100530.94;;;11.04;100.00
36964;BME280;22878;48.616;35.326;2023-04-29T02:36:57;100539.35;;;11.00;100.00
36964;BME280;22878;48.616;35.326;2023-04-29T02:39:22;100543.09;;;10.95;100.00
36964;BME280;22878;48.616;35.326;2023-04-29T02:41:48;100548.91;;;10.93;100.00
36964;BME280;22878;48.616;35.326;2023-04-29T02:44:14;100551.08;;;10.94;100.00
36964;BME280;22878;48.616;35.326;2023-04-29T02:46:40;100550.52;;;10.92;100.00
36964;BME280;22878;48.616;35.326;2023-04-29T02:49:09;100550.07;;;10.86;100.00
36964;BME280;22878;48.616;35.326;2023-04-29T02:51:35;100550.71;;;10.86;100.00
36964;BME280;22878;48.616;35.326;2023-04-29T02:54:00;100548.66;;;10.89;100.00
36964;BME280;22878;48.616;35.326;2023-04-29T02:56:26;100547.35;;;10.92;100.00
36964;BME280;22878;48.616;35.326;2023-04-29T02:58:52;100551.84;;;10.96;100.00
36964;BME280;22878;48.616;35.326;2023-04-29T03:01:17;100550.64;;;10.95;100.00
36964;BME280;22878;48.616;35.326;2023-04-29T03:03:43;100550.05;;;10.95;100.00
36964;BME280;22878;48.616;35.326;2023-04-29T03:06:08;100555.19;;;10.99;100.00
36964;BME280;22878;48.616;35.326;2023-04-29T03:08:34;100556.27;;;10.97;100.00
36964;BME280;22878;48.616;35.326;2023-04-29T03:11:00;100555.59;;;10.93;100.00
36964;BME280;22878;48.616;35.326;2023-04-29T03:13:25;100553.77;;;10.94;100.00
36964;BME280;22878;48.616;35.326;2023-04-29T03:15:51;100556.20;;;10.97;100.00
36964;BME280;22878;48.616;35.326;2023-04-29T03:18:16;100553.02;;;10.98;100.00
36964;BME280;22878;48.616;35.326;2023-04-29T03:20:42;100555.80;;;10.91;100.00
36964;BME280;22878;48.616;35.326;2023-04-29T03:23:07;100553.14;;;10.85;100.00
36964;BME280;22878;48.616;35.326;2023-04-29T03:25:33;100550.12;;;10.87;100.00
36964;BME280;22878;48.616;35.326;2023-04-29T03:27:58;100542.15;;;10.86;100.00
36964;BME280;22878;48.616;35.326;2023-04-29T03:30:24;100543.64;;;10.83;100.00
36964;BME280;22878;48.616;35.326;2023-04-29T03:32:49;100546.88;;;10.73;100.00
36964;BME280;22878;48.616;35.326;2023-04-29T03:35:15;100551.91;;;10.68;100.00
36964;BME280;22878;48.616;35.326;2023-04-29T03:37:41;100551.92;;;10.67;100.00
36964;BME280;22878;48.616;35.326;2023-04-29T03:40:08;100553.52;;;10.66;100.00
36964;BME280;22878;48.616;35.326;2023-04-29T03:42:34;100547.16;;;10.66;100.00
36964;BME280;22878;48.616;35.326;2023-04-29T03:45:00;100543.02;;;10.66;100.00
36964;BME280;22878;48.616;35.326;2023-04-29T03:47:26;100539.73;;;10.68;100.00
36964;BME280;22878;48.616;35.326;2023-04-29T03:49:51;100536.45;;;10.68;100.00
36964;BME280;22878;48.616;35.326;2023-04-29T03:52:17;100540.20;;;10.66;100.00
36964;BME280;22878;48.616;35.326;2023-04-29T03:54:43;100540.38;;;10.67;100.00
36964;BME280;22878;48.616;35.326;2023-04-29T03:57:08;100546.67;;;10.66;100.00
36964;BME280;22878;48.616;35.326;2023-04-29T03:59:34;100549.73;;;10.73;100.00
36964;BME280;22878;48.616;35.326;2023-04-29T04:01:59;100551.95;;;10.74;100.00
36964;BME280;22878;48.616;35.326;2023-04-29T04:04:25;100555.38;;;10.71;100.00
36964;BME280;22878;48.616;35.326;2023-04-29T04:06:51;100554.94;;;10.71;100.00
36964;BME280;22878;48.616;35.326;2023-04-29T04:09:19;100553.55;;;10.70;100.00
36964;BME280;22878;48.616;35.326;2023-04-29T04:11:45;100549.38;;;10.77;100.00
36964;BME280;22878;48.616;35.326;2023-04-29T04:14:11;100552.56;;;10.79;100.00
36964;BME280;22878;48.616;35.326;2023-04-29T04:16:36;100555.69;;;10.78;100.00
36964;BME280;22878;48.616;35.326;2023-04-29T04:19:02;100556.33;;;10.76;100.00
36964;BME280;22878;48.616;35.326;2023-04-29T04:21:28;100560.79;;;10.73;100.00
36964;BME280;22878;48.616;35.326;2023-04-29T04:23:54;100567.70;;;10.76;100.00
36964;BME280;22878;48.616;35.326;2023-04-29T04:29:41;100572.20;;;10.82;100.00
36964;BME280;22878;48.616;35.326;2023-04-29T04:32:07;100571.07;;;10.83;100.00
36964;BME280;22878;48.616;35.326;2023-04-29T04:34:32;100572.27;;;10.84;100.00
36964;BME280;22878;48.616;35.326;2023-04-29T04:36:58;100576.41;;;10.83;100.00
36964;BME280;22878;48.616;35.326;2023-04-29T04:39:23;100578.14;;;10.82;100.00
36964;BME280;22878;48.616;35.326;2023-04-29T04:41:49;100577.00;;;10.80;100.00
36964;BME280;22878;48.616;35.326;2023-04-29T04:44:17;100579.71;;;10.83;100.00
36964;BME280;22878;48.616;35.326;2023-04-29T04:46:43;100583.35;;;10.81;100.00
36964;BME280;22878;48.616;35.326;2023-04-29T04:49:08;100585.35;;;10.79;100.00
36964;BME280;22878;48.616;35.326;2023-04-29T04:51:34;100589.27;;;10.75;100.00
36964;BME280;22878;48.616;35.326;2023-04-29T04:54:00;100593.25;;;10.76;100.00
36964;BME280;22878;48.616;35.326;2023-04-29T04:56:25;100594.88;;;10.78;100.00
36964;BME280;22878;48.616;35.326;2023-04-29T04:58:51;100598.34;;;10.79;100.00
36964;BME280;22878;48.616;35.326;2023-04-29T05:01:16;100595.99;;;10.84;100.00
36964;BME280;22878;48.616;35.326;2023-04-29T05:03:41;100604.94;;;10.83;100.00
36964;BME280;22878;48.616;35.326;2023-04-29T05:06:07;100599.40;;;10.85;100.00
36964;BME280;22878;48.616;35.326;2023-04-29T05:08:33;100599.84;;;10.86;100.00
36964;BME280;22878;48.616;35.326;2023-04-29T05:10:58;100595.06;;;10.82;100.00
36964;BME280;22878;48.616;35.326;2023-04-29T05:13:24;100596.48;;;10.83;100.00
36964;BME280;22878;48.616;35.326;2023-04-29T05:15:50;100598.79;;;10.83;100.00
36964;BME280;22878;48.616;35.326;2023-04-29T05:18:18;100596.23;;;10.89;100.00
36964;BME280;22878;48.616;35.326;2023-04-29T05:20:44;100594.71;;;10.88;100.00
36964;BME280;22878;48.616;35.326;2023-04-29T05:23:09;100595.98;;;10.89;100.00
36964;BME280;22878;48.616;35.326;2023-04-29T05:25:35;100594.05;;;10.94;100.00
36964;BME280;22878;48.616;35.326;2023-04-29T05:28:02;100594.23;;;10.96;100.00
36964;BME280;22878;48.616;35.326;2023-04-29T05:30:28;100595.00;;;11.02;100.00
36964;BME280;22878;48.616;35.326;2023-04-29T05:32:54;100598.05;;;11.09;100.00
36964;BME280;22878;48.616;35.326;2023-04-29T05:35:20;100603.73;;;11.10;100.00
36964;BME280;22878;48.616;35.326;2023-04-29T05:37:46;100601.96;;;11.14;100.00
36964;BME280;22878;48.616;35.326;2023-04-29T05:40:12;100608.95;;;11.22;100.00
36964;BME280;22878;48.616;35.326;2023-04-29T05:42:37;100610.80;;;11.24;100.00
36964;BME280;22878;48.616;35.326;2023-04-29T05:45:03;100612.27;;;11.28;100.00
36964;BME280;22878;48.616;35.326;2023-04-29T05:47:28;100609.25;;;11.28;100.00
36964;BME280;22878;48.616;35.326;2023-04-29T05:49:54;100610.50;;;11.30;100.00
36964;BME280;22878;48.616;35.326;2023-04-29T05:52:19;100608.02;;;11.31;100.00
36964;BME280;22878;48.616;35.326;2023-04-29T05:54:45;100608.09;;;11.36;100.00
36964;BME280;22878;48.616;35.326;2023-04-29T05:57:10;100611.27;;;11.35;100.00
36964;BME280;22878;48.616;35.326;2023-04-29T05:59:36;100611.77;;;11.35;100.00
36964;BME280;22878;48.616;35.326;2023-04-29T06:02:01;100616.27;;;11.45;100.00
36964;BME280;22878;48.616;35.326;2023-04-29T06:04:27;100618.81;;;11.49;100.00
36964;BME280;22878;48.616;35.326;2023-04-29T06:06:54;100622.18;;;11.38;100.00
36964;BME280;22878;48.616;35.326;2023-04-29T06:09:22;100633.94;;;11.34;100.00
36964;BME280;22878;48.616;35.326;2023-04-29T06:11:50;100639.55;;;11.34;100.00
36964;BME280;22878;48.616;35.326;2023-04-29T06:14:15;100649.08;;;11.41;100.00
36964;BME280;22878;48.616;35.326;2023-04-29T06:16:41;100648.58;;;11.39;100.00
36964;BME280;22878;48.616;35.326;2023-04-29T06:19:07;100646.23;;;11.42;100.00
36964;BME280;22878;48.616;35.326;2023-04-29T06:21:32;100649.06;;;11.52;100.00
36964;BME280;22878;48.616;35.326;2023-04-29T06:23:58;100645.06;;;11.51;100.00
36964;BME280;22878;48.616;35.326;2023-04-29T06:26:23;100655.30;;;11.52;100.00
36964;BME280;22878;48.616;35.326;2023-04-29T06:28:49;100660.77;;;11.55;100.00
36964;BME280;22878;48.616;35.326;2023-04-29T06:31:15;100659.34;;;11.45;100.00
36964;BME280;22878;48.616;35.326;2023-04-29T06:33:41;100650.98;;;11.48;100.00
36964;BME280;22878;48.616;35.326;2023-04-29T06:36:07;100647.27;;;11.53;100.00
36964;BME280;22878;48.616;35.326;2023-04-29T06:38:33;100646.68;;;11.69;100.00
36964;BME280;22878;48.616;35.326;2023-04-29T06:40:58;100647.34;;;11.72;100.00
36964;BME280;22878;48.616;35.326;2023-04-29T06:43:27;100648.54;;;11.76;100.00
36964;BME280;22878;48.616;35.326;2023-04-29T06:45:53;100650.05;;;11.79;100.00
36964;BME280;22878;48.616;35.326;2023-04-29T06:48:18;100648.94;;;11.79;100.00
36964;BME280;22878;48.616;35.326;2023-04-29T06:50:54;100647.95;;;11.89;100.00
36964;BME280;22878;48.616;35.326;2023-04-29T06:53:20;100651.54;;;12.01;100.00
36964;BME280;22878;48.616;35.326;2023-04-29T06:55:46;100658.30;;;12.01;100.00
36964;BME280;22878;48.616;35.326;2023-04-29T06:58:13;100668.36;;;12.09;100.00
36964;BME280;22878;48.616;35.326;2023-04-29T07:00:39;100673.23;;;12.18;100.00
36964;BME280;22878;48.616;35.326;2023-04-29T07:03:08;100685.66;;;12.20;100.00
36964;BME280;22878;48.616;35.326;2023-04-29T07:05:35;100692.24;;;12.23;100.00
36964;BME280;22878;48.616;35.326;2023-04-29T07:08:01;100692.81;;;12.32;100.00
36964;BME280;22878;48.616;35.326;2023-04-29T07:10:26;100694.37;;;12.41;100.00
36964;BME280;22878;48.616;35.326;2023-04-29T07:12:55;100697.41;;;12.48;100.00
36964;BME280;22878;48.616;35.326;2023-04-29T07:15:21;100697.91;;;12.50;100.00
36964;BME280;22878;48.616;35.326;2023-04-29T07:17:49;100695.35;;;12.48;100.00
36964;BME280;22878;48.616;35.326;2023-04-29T07:20:15;100695.58;;;12.51;100.00
36964;BME280;22878;48.616;35.326;2023-04-29T07:22:41;100697.42;;;12.59;100.00
36964;BME280;22878;48.616;35.326;2023-04-29T07:25:06;100696.65;;;12.68;100.00
36964;BME280;22878;48.616;35.326;2023-04-29T07:27:33;100701.95;;;12.73;100.00
36964;BME280;22878;48.616;35.326;2023-04-29T07:30:00;100704.66;;;12.73;100.00
36964;BME280;22878;48.616;35.326;2023-04-29T07:32:25;100705.52;;;12.65;100.00
36964;BME280;22878;48.616;35.326;2023-04-29T07:34:51;100706.88;;;12.65;100.00
36964;BME280;22878;48.616;35.326;2023-04-29T07:37:17;100703.24;;;12.75;100.00
36964;BME280;22878;48.616;35.326;2023-04-29T07:39:43;100712.77;;;12.76;100.00
36964;BME280;22878;48.616;35.326;2023-04-29T07:42:09;100718.12;;;12.78;100.00
36964;BME280;22878;48.616;35.326;2023-04-29T07:44:34;100714.45;;;12.72;100.00
36964;BME280;22878;48.616;35.326;2023-04-29T07:47:00;100713.36;;;12.78;100.00
36964;BME280;22878;48.616;35.326;2023-04-29T07:49:26;100711.85;;;12.85;100.00
36964;BME280;22878;48.616;35.326;2023-04-29T07:51:52;100715.45;;;12.93;100.00
36964;BME280;22878;48.616;35.326;2023-04-29T07:54:17;100718.80;;;12.92;100.00
36964;BME280;22878;48.616;35.326;2023-04-29T07:56:47;100715.67;;;12.92;100.00
36964;BME280;22878;48.616;35.326;2023-04-29T07:59:12;100712.54;;;12.92;100.00
36964;BME280;22878;48.616;35.326;2023-04-29T08:01:40;100709.13;;;12.90;100.00
36964;BME280;22878;48.616;35.326;2023-04-29T08:04:05;100708.27;;;12.91;100.00
36964;BME280;22878;48.616;35.326;2023-04-29T08:06:32;100699.28;;;12.97;100.00
36964;BME280;22878;48.616;35.326;2023-04-29T08:08:58;100696.58;;;12.99;100.00
36964;BME280;22878;48.616;35.326;2023-04-29T08:11:23;100693.44;;;12.96;100.00
36964;BME280;22878;48.616;35.326;2023-04-29T08:13:50;100689.38;;;12.95;100.00
36964;BME280;22878;48.616;35.326;2023-04-29T08:16:16;100689.00;;;12.90;100.00
36964;BME280;22878;48.616;35.326;2023-04-29T08:18:42;100688.30;;;12.96;100.00
36964;BME280;22878;48.616;35.326;2023-04-29T08:21:07;100680.86;;;13.04;100.00
36964;BME280;22878;48.616;35.326;2023-04-29T08:23:36;100679.83;;;13.09;100.00
36964;BME280;22878;48.616;35.326;2023-04-29T08:26:02;100681.05;;;13.17;100.00
36964;BME280;22878;48.616;35.326;2023-04-29T08:28:28;100678.98;;;13.21;100.00
36964;BME280;22878;48.616;35.326;2023-04-29T08:30:53;100679.80;;;13.32;100.00
36964;BME280;22878;48.616;35.326;2023-04-29T08:33:19;100682.36;;;13.42;100.00
36964;BME280;22878;48.616;35.326;2023-04-29T08:35:45;100683.38;;;13.44;100.00
36964;BME280;22878;48.616;35.326;2023-04-29T08:38:11;100679.86;;;13.43;100.00
36964;BME280;22878;48.616;35.326;2023-04-29T08:40:41;100673.34;;;13.32;100.00
36964;BME280;22878;48.616;35.326;2023-04-29T08:43:07;100676.53;;;13.34;100.00
36964;BME280;22878;48.616;35.326;2023-04-29T08:45:35;100673.77;;;13.36;100.00
36964;BME280;22878;48.616;35.326;2023-04-29T08:48:05;100675.97;;;13.41;100.00
36964;BME280;22878;48.616;35.326;2023-04-29T08:50:36;100670.69;;;13.60;100.00
36964;BME280;22878;48.616;35.326;2023-04-29T08:53:04;100667.73;;;13.76;100.00
36964;BME280;22878;48.616;35.326;2023-04-29T08:55:30;100662.34;;;13.93;100.00
36964;BME280;22878;48.616;35.326;2023-04-29T08:57:57;100664.45;;;14.01;100.00
36964;BME280;22878;48.616;35.326;2023-04-29T09:00:23;100664.66;;;14.09;100.00
36964;BME280;22878;48.616;35.326;2023-04-29T09:02:50;100669.09;;;14.12;100.00
36964;BME280;22878;48.616;35.326;2023-04-29T09:05:17;100669.58;;;14.13;100.00
36964;BME280;22878;48.616;35.326;2023-04-29T09:07:44;100673.95;;;14.15;100.00
36964;BME280;22878;48.616;35.326;2023-04-29T09:10:10;100671.42;;;14.13;100.00
36964;BME280;22878;48.616;35.326;2023-04-29T09:12:36;100674.48;;;14.00;100.00
36964;BME280;22878;48.616;35.326;2023-04-29T09:15:02;100675.35;;;14.01;100.00
36964;BME280;22878;48.616;35.326;2023-04-29T09:17:41;100674.86;;;14.10;100.00
36964;BME280;22878;48.616;35.326;2023-04-29T09:22:56;100668.71;;;14.04;100.00
36964;BME280;22878;48.616;35.326;2023-04-29T09:25:22;100669.81;;;14.02;100.00
36964;BME280;22878;48.616;35.326;2023-04-29T09:27:48;100666.52;;;13.92;100.00
36964;BME280;22878;48.616;35.326;2023-04-29T09:30:13;100665.80;;;13.83;100.00
36964;BME280;22878;48.616;35.326;2023-04-29T09:32:41;100663.05;;;13.72;100.00
36964;BME280;22878;48.616;35.326;2023-04-29T09:35:24;100663.69;;;13.65;100.00
36964;BME280;22878;48.616;35.326;2023-04-29T09:37:51;100667.02;;;13.57;100.00
36964;BME280;22878;48.616;35.326;2023-04-29T09:40:31;100672.52;;;13.52;100.00
36964;BME280;22878;48.616;35.326;2023-04-29T09:42:58;100676.17;;;13.48;100.00
36964;BME280;22878;48.616;35.326;2023-04-29T09:45:37;100678.99;;;13.44;100.00
36964;BME280;22878;48.616;35.326;2023-04-29T09:48:04;100676.86;;;13.32;100.00
36964;BME280;22878;48.616;35.326;2023-04-29T09:50:34;100673.79;;;13.24;100.00
36964;BME280;22878;48.616;35.326;2023-04-29T09:53:03;100668.33;;;13.25;100.00
36964;BME280;22878;48.616;35.326;2023-04-29T09:55:30;100672.06;;;13.26;100.00
36964;BME280;22878;48.616;35.326;2023-04-29T09:57:56;100671.95;;;13.25;100.00
36964;BME280;22878;48.616;35.326;2023-04-29T10:00:23;100671.59;;;13.19;100.00
36964;BME280;22878;48.616;35.326;2023-04-29T10:02:50;100665.80;;;13.15;100.00
36964;BME280;22878;48.616;35.326;2023-04-29T10:05:18;100663.63;;;13.16;100.00
36964;BME280;22878;48.616;35.326;2023-04-29T10:07:45;100665.14;;;13.18;100.00
36964;BME280;22878;48.616;35.326;2023-04-29T10:10:12;100662.59;;;13.17;100.00
36964;BME280;22878;48.616;35.326;2023-04-29T10:12:39;100658.90;;;13.17;100.00
36964;BME280;22878;48.616;35.326;2023-04-29T10:15:28;100660.23;;;13.14;100.00
36964;BME280;22878;48.616;35.326;2023-04-29T10:20:46;100659.67;;;13.17;100.00
36964;BME280;22878;48.616;35.326;2023-04-29T10:23:13;100663.58;;;13.12;100.00
36964;BME280;22878;48.616;35.326;2023-04-29T10:25:40;100666.94;;;13.15;100.00
36964;BME280;22878;48.616;35.326;2023-04-29T10:28:12;100674.16;;;13.22;100.00
36964;BME280;22878;48.616;35.326;2023-04-29T10:30:42;100685.48;;;13.24;100.00
36964;BME280;22878;48.616;35.326;2023-04-29T10:33:10;100686.29;;;13.21;100.00
36964;BME280;22878;48.616;35.326;2023-04-29T10:35:36;100693.07;;;13.15;100.00
36964;BME280;22878;48.616;35.326;2023-04-29T10:38:09;100690.62;;;13.19;100.00
36964;BME280;22878;48.616;35.326;2023-04-29T10:40:43;100688.41;;;13.18;100.00
36964;BME280;22878;48.616;35.326;2023-04-29T10:43:11;100689.10;;;13.23;100.00
36964;BME280;22878;48.616;35.326;2023-04-29T10:45:37;100691.81;;;13.20;100.00
36964;BME280;22878;48.616;35.326;2023-04-29T10:50:41;100705.96;;;13.11;100.00
36964;BME280;22878;48.616;35.326;2023-04-29T10:53:23;100710.56;;;13.10;100.00
36964;BME280;22878;48.616;35.326;2023-04-29T10:55:57;100710.72;;;13.07;100.00
36964;BME280;22878;48.616;35.326;2023-04-29T11:01:05;100717.77;;;13.04;100.00
36964;BME280;22878;48.616;35.326;2023-04-29T11:06:15;100713.68;;;13.19;100.00
36964;BME280;22878;48.616;35.326;2023-04-29T11:08:40;100713.62;;;13.20;100.00
36964;BME280;22878;48.616;35.326;2023-04-29T11:11:08;100722.50;;;13.22;100.00
36964;BME280;22878;48.616;35.326;2023-04-29T11:13:45;100726.90;;;13.30;100.00
36964;BME280;22878;48.616;35.326;2023-04-29T11:16:11;100727.76;;;13.30;100.00
36964;BME280;22878;48.616;35.326;2023-04-29T11:21:35;100732.89;;;13.22;100.00
36964;BME280;22878;48.616;35.326;2023-04-29T11:24:02;100725.80;;;13.22;100.00
36964;BME280;22878;48.616;35.326;2023-04-29T11:26:28;100717.90;;;13.29;100.00
36964;BME280;22878;48.616;35.326;2023-04-29T11:28:55;100723.14;;;13.38;100.00
36964;BME280;22878;48.616;35.326;2023-04-29T11:31:29;100729.34;;;13.43;100.00
36964;BME280;22878;48.616;35.326;2023-04-29T11:33:54;100737.10;;;13.38;100.00
36964;BME280;22878;48.616;35.326;2023-04-29T11:36:20;100736.73;;;13.34;100.00
36964;BME280;22878;48.616;35.326;2023-04-29T11:38:46;100737.77;;;13.32;100.00
36964;BME280;22878;48.616;35.326;2023-04-29T11:41:11;100730.83;;;13.37;100.00
36964;BME280;22878;48.616;35.326;2023-04-29T11:43:37;100719.34;;;13.40;100.00
36964;BME280;22878;48.616;35.326;2023-04-29T11:46:14;100720.45;;;13.50;100.00
36964;BME280;22878;48.616;35.326;2023-04-29T11:48:47;100718.50;;;13.65;100.00
36964;BME280;22878;48.616;35.326;2023-04-29T11:51:17;100710.46;;;13.67;100.00
36964;BME280;22878;48.616;35.326;2023-04-29T11:53:44;100709.30;;;13.73;100.00
36964;BME280;22878;48.616;35.326;2023-04-29T11:56:10;100708.41;;;13.78;100.00
36964;BME280;22878;48.616;35.326;2023-04-29T11:58:36;100709.42;;;13.81;100.00
36964;BME280;22878;48.616;35.326;2023-04-29T12:01:03;100705.58;;;13.82;100.00
36964;BME280;22878;48.616;35.326;2023-04-29T12:03:31;100708.06;;;13.74;100.00
36964;BME280;22878;48.616;35.326;2023-04-29T12:05:57;100704.02;;;13.69;100.00
36964;BME280;22878;48.616;35.326;2023-04-29T12:08:26;100701.24;;;13.59;100.00
36964;BME280;22878;48.616;35.326;2023-04-29T12:10:55;100707.56;;;13.49;100.00
36964;BME280;22878;48.616;35.326;2023-04-29T12:13:28;100712.61;;;13.47;100.00
36964;BME280;22878;48.616;35.326;2023-04-29T12:15:55;100711.21;;;13.44;100.00
36964;BME280;22878;48.616;35.326;2023-04-29T12:18:22;100710.89;;;13.42;100.00
36964;BME280;22878;48.616;35.326;2023-04-29T12:20:48;100711.80;;;13.41;100.00
36964;BME280;22878;48.616;35.326;2023-04-29T12:23:18;100710.09;;;13.39;100.00
36964;BME280;22878;48.616;35.326;2023-04-29T12:25:55;100708.08;;;13.40;100.00
36964;BME280;22878;48.616;35.326;2023-04-29T12:28:21;100699.96;;;13.39;100.00
36964;BME280;22878;48.616;35.326;2023-04-29T12:30:47;100694.69;;;13.46;100.00
36964;BME280;22878;48.616;35.326;2023-04-29T12:33:24;100693.66;;;13.59;100.00
36964;BME280;22878;48.616;35.326;2023-04-29T12:35:52;100694.03;;;13.62;100.00
36964;BME280;22878;48.616;35.326;2023-04-29T12:38:23;100687.86;;;13.60;100.00
36964;BME280;22878;48.616;35.326;2023-04-29T12:40:52;100688.85;;;13.54;100.00
36964;BME280;22878;48.616;35.326;2023-04-29T12:43:18;100683.66;;;13.54;100.00
36964;BME280;22878;48.616;35.326;2023-04-29T12:45:44;100685.65;;;13.59;100.00
36964;BME280;22878;48.616;35.326;2023-04-29T12:48:11;100682.58;;;13.54;100.00
36964;BME280;22878;48.616;35.326;2023-04-29T12:50:38;100691.41;;;13.53;100.00
36964;BME280;22878;48.616;35.326;2023-04-29T12:53:05;100693.58;;;13.50;100.00
36964;BME280;22878;48.616;35.326;2023-04-29T12:55:36;100690.48;;;13.54;100.00
36964;BME280;22878;48.616;35.326;2023-04-29T12:58:03;100687.87;;;13.57;100.00